Time;durP1;ratioP1;P1;durP2;ratioP2;P2;SDS_P1;SDS_P2;PMS_P1;PMS_P2;Temp;Humidity;BMP_temperature;BMP_pressure;BME280_temperature;BME280_humidity;BME280_pressure;Samples;Min_cycle;Max_cycle;Signal;HPM_P1;HPM_P2
2021/11/24 00:02:39;;;;;;;2.17;0.70;;;;;;;10.86;100.00;101056.13;5037234;28;20102;-54
2021/11/24 00:05:43;;;;;;;1.55;0.63;;;;;;;10.91;100.00;101053.56;5037745;28;20249;-54
2021/11/24 00:08:48;;;;;;;5.10;0.95;;;;;;;11.03;100.00;101043.59;5036623;28;20241;-54
2021/11/24 00:11:51;;;;;;;2.15;0.65;;;;;;;11.08;100.00;101045.81;5037249;28;20051;-54
2021/11/24 00:14:54;;;;;;;1.10;1.08;;;;;;;11.05;100.00;101041.13;5037209;28;20044;-52
2021/11/24 00:17:57;;;;;;;0.70;0.70;;;;;;;10.92;100.00;101043.19;5037366;28;20445;-54
2021/11/24 00:21:00;;;;;;;0.80;0.80;;;;;;;10.81;100.00;101042.75;5037349;28;20503;-54
2021/11/24 00:24:03;;;;;;;1.17;0.68;;;;;;;10.83;100.00;101034.75;5030707;28;20044;-52
2021/11/24 00:27:06;;;;;;;0.68;0.32;;;;;;;10.83;100.00;101026.38;5036804;28;20035;-52
2021/11/24 00:30:10;;;;;;;11.98;1.20;;;;;;;10.84;100.00;101030.72;5037042;28;20052;-52
2021/11/24 00:33:13;;;;;;;2.25;0.85;;;;;;;10.82;100.00;101022.03;5037038;28;20576;-52
2021/11/24 00:36:16;;;;;;;0.82;0.75;;;;;;;10.78;100.00;101015.78;5028754;28;20369;-54
2021/11/24 00:39:20;;;;;;;2.15;0.95;;;;;;;10.66;100.00;101014.59;5021742;28;20067;-54
2021/11/24 00:42:23;;;;;;;2.33;0.80;;;;;;;10.66;100.00;101017.38;5036675;28;20055;-54
2021/11/24 00:45:27;;;;;;;2.05;0.75;;;;;;;10.64;100.00;101022.59;5037065;28;20048;-54
2021/11/24 00:48:30;;;;;;;1.08;0.60;;;;;;;10.79;100.00;101020.13;5037224;28;20094;-54
2021/11/24 00:51:33;;;;;;;1.27;1.17;;;;;;;10.73;100.00;101016.34;5036780;28;20067;-54
2021/11/24 00:54:37;;;;;;;3.50;0.50;;;;;;;10.63;100.00;101012.72;5036818;28;20055;-54
2021/11/24 00:57:40;;;;;;;2.53;0.57;;;;;;;10.68;100.00;101010.13;5023495;28;20102;-54
2021/11/24 01:00:44;;;;;;;1.13;0.55;;;;;;;10.78;100.00;101004.66;5036854;28;20577;-54
2021/11/24 01:03:47;;;;;;;0.88;0.68;;;;;;;10.65;100.00;100991.50;5036245;28;20119;-54
2021/11/24 01:06:51;;;;;;;18.88;1.48;;;;;;;10.58;100.00;100993.75;5024978;28;20569;-54
2021/11/24 01:09:54;;;;;;;0.25;0.20;;;;;;;10.66;100.00;100987.50;5028660;28;20035;-54
2021/11/24 01:12:57;;;;;;;0.70;0.43;;;;;;;10.72;100.00;100986.94;5039672;28;20051;-54
2021/11/24 01:16:00;;;;;;;2.60;1.13;;;;;;;10.75;100.00;100975.69;5039839;28;20115;-54
2021/11/24 01:19:03;;;;;;;4.35;1.30;;;;;;;10.82;100.00;100983.81;5039444;28;20043;-54
2021/11/24 01:22:06;;;;;;;0.88;0.50;;;;;;;10.81;100.00;100975.88;5026629;28;20190;-54
2021/11/24 01:25:10;;;;;;;3.28;0.75;;;;;;;10.80;100.00;100968.75;5040687;28;20085;-54
2021/11/24 01:28:13;;;;;;;1.50;0.55;;;;;;;10.84;100.00;100961.06;5040764;28;20032;-54
2021/11/24 01:31:16;;;;;;;2.08;0.50;;;;;;;10.89;100.00;100960.50;5040374;28;20083;-54
2021/11/24 01:34:19;;;;;;;2.50;0.85;;;;;;;10.87;100.00;100957.38;5026600;28;20130;-54
2021/11/24 01:37:22;;;;;;;2.40;0.63;;;;;;;10.87;100.00;100965.72;5040455;28;21050;-52
2021/11/24 01:40:25;;;;;;;2.05;1.05;;;;;;;10.88;100.00;100947.78;5039808;28;20102;-53
2021/11/24 01:43:28;;;;;;;1.13;0.32;;;;;;;10.85;100.00;100952.22;5040389;28;20038;-53
2021/11/24 01:46:32;;;;;;;1.60;0.85;;;;;;;10.83;100.00;100945.56;5042307;28;20059;-53
2021/11/24 01:49:35;;;;;;;1.40;0.90;;;;;;;10.83;100.00;100948.38;5043981;28;20079;-54
2021/11/24 01:52:38;;;;;;;2.88;0.80;;;;;;;10.82;100.00;100936.44;5042082;28;20102;-53
2021/11/24 01:55:41;;;;;;;2.42;1.10;;;;;;;10.84;100.00;100933.97;5041537;28;20139;-53
2021/11/24 01:58:45;;;;;;;2.60;1.05;;;;;;;10.84;100.00;100924.81;5037591;28;20051;-53
2021/11/24 02:01:49;;;;;;;1.98;0.98;;;;;;;10.96;100.00;100915.66;5038141;28;20052;-53
2021/11/24 02:04:54;;;;;;;3.17;0.20;;;;;;;10.83;100.00;100914.94;5038298;28;20040;-53
2021/11/24 02:07:57;;;;;;;2.22;0.63;;;;;;;10.85;100.00;100915.25;5038749;28;20043;-53
2021/11/24 02:11:00;;;;;;;3.47;0.70;;;;;;;10.87;100.00;100915.56;5040058;28;20399;-54
2021/11/24 02:14:05;;;;;;;4.55;0.85;;;;;;;10.89;100.00;100918.69;5039016;28;20102;-53
2021/11/24 02:17:09;;;;;;;0.57;0.40;;;;;;;10.95;100.00;100914.09;5038770;28;21005;-53
2021/11/24 02:20:14;;;;;;;4.10;1.40;;;;;;;11.02;100.00;100902.69;5022204;28;20578;-53
2021/11/24 02:23:18;;;;;;;3.30;0.60;;;;;;;11.03;100.00;100898.66;5037510;28;20578;-53
2021/11/24 02:26:22;;;;;;;5.38;1.77;;;;;;;11.07;100.00;100893.72;5023502;28;20079;-53
2021/11/24 02:29:27;;;;;;;8.45;2.15;;;;;;;11.12;100.00;100884.78;5037443;28;20511;-53
2021/11/24 02:32:30;;;;;;;6.88;3.05;;;;;;;11.19;100.00;100892.91;5040526;28;20110;-53
2021/11/24 02:35:33;;;;;;;7.20;1.40;;;;;;;11.23;100.00;100882.38;5039892;28;20115;-53
2021/11/24 02:38:36;;;;;;;8.63;2.35;;;;;;;11.17;100.00;100876.63;5023456;28;20807;-53
2021/11/24 02:41:40;;;;;;;5.55;2.13;;;;;;;11.15;100.00;100867.16;5036631;28;20539;-53
2021/11/24 02:44:43;;;;;;;5.97;1.73;;;;;;;11.13;100.00;100875.97;5024380;28;20565;-53
2021/11/24 02:47:46;;;;;;;2.85;2.10;;;;;;;11.02;100.00;100872.03;5037535;28;20503;-53
2021/11/24 02:50:51;;;;;;;4.00;2.28;;;;;;;11.01;100.00;100874.03;5037271;28;20178;-53
2021/11/24 02:53:54;;;;;;;6.53;1.75;;;;;;;10.98;100.00;100866.56;5037342;28;20055;-53
2021/11/24 02:57:02;;;;;;;4.28;1.77;;;;;;;10.94;100.00;100865.13;5025388;28;20210;-53
2021/11/24 03:00:16;;;;;;;3.97;1.63;;;;;;;10.95;100.00;100861.13;5036963;28;20447;-53
2021/11/24 03:03:19;;;;;;;1.27;0.60;;;;;;;10.98;100.00;100851.88;5037272;28;20071;-53
2021/11/24 03:06:22;;;;;;;7.63;1.17;;;;;;;11.04;100.00;100848.06;5037260;28;20047;-53
2021/11/24 03:09:25;;;;;;;7.28;2.63;;;;;;;11.07;100.00;100838.75;5035953;28;20408;-53
2021/11/24 03:12:29;;;;;;;1.65;0.77;;;;;;;11.08;100.00;100833.97;5036826;28;20059;-53
2021/11/24 03:15:33;;;;;;;1.58;0.85;;;;;;;11.08;100.00;100828.38;5017043;28;20118;-53
2021/11/24 03:18:36;;;;;;;3.22;1.95;;;;;;;11.07;100.00;100824.03;5020973;28;20055;-53
2021/11/24 03:21:39;;;;;;;3.10;1.27;;;;;;;10.97;100.00;100826.00;5037299;28;20458;-53
2021/11/24 03:24:42;;;;;;;3.13;1.48;;;;;;;10.93;100.00;100821.78;5056591;28;20040;-53
2021/11/24 03:27:45;;;;;;;1.98;1.15;;;;;;;10.94;100.00;100817.75;5072368;28;20039;-53
2021/11/24 03:30:48;;;;;;;6.65;1.63;;;;;;;10.94;100.00;100806.59;5071811;28;20043;-53
2021/11/24 03:33:51;;;;;;;4.28;1.48;;;;;;;10.96;100.00;100798.59;5072394;28;20062;-53
2021/11/24 03:36:54;;;;;;;7.53;3.05;;;;;;;10.96;100.00;100801.38;5058210;28;20579;-53
2021/11/24 03:39:57;;;;;;;4.32;1.35;;;;;;;11.01;100.00;100789.63;5072240;28;20128;-52
2021/11/24 03:43:01;;;;;;;4.45;2.08;;;;;;;10.98;100.00;100784.97;5071571;28;20110;-53
2021/11/24 03:46:04;;;;;;;2.45;1.70;;;;;;;11.00;100.00;100788.09;5072517;28;20051;-53
2021/11/24 03:49:07;;;;;;;3.50;1.40;;;;;;;11.00;100.00;100785.31;5059335;28;20043;-53
2021/11/24 03:52:10;;;;;;;1.40;0.85;;;;;;;11.05;100.00;100776.31;5072097;28;20090;-53
2021/11/24 03:55:14;;;;;;;7.90;3.00;;;;;;;11.04;100.00;100778.38;5072045;28;20396;-53
2021/11/24 03:58:17;;;;;;;2.35;2.10;;;;;;;11.10;100.00;100773.75;5072011;28;20515;-53
2021/11/24 04:01:20;;;;;;;6.68;2.55;;;;;;;11.06;100.00;100764.75;5060181;28;20047;-53
2021/11/24 04:04:23;;;;;;;4.15;1.38;;;;;;;10.98;100.00;100757.88;5072230;28;20511;-53
2021/11/24 04:07:26;;;;;;;3.22;1.17;;;;;;;10.93;100.00;100749.34;5060623;28;20043;-52
2021/11/24 04:10:29;;;;;;;3.22;0.85;;;;;;;10.96;100.00;100742.84;5071809;28;20062;-53
2021/11/24 04:13:32;;;;;;;3.75;1.70;;;;;;;10.98;100.00;100751.53;5072408;28;20048;-53
2021/11/24 04:16:35;;;;;;;2.22;1.23;;;;;;;10.98;100.00;100740.38;5071469;28;20146;-53
2021/11/24 04:19:38;;;;;;;5.60;1.30;;;;;;;11.02;100.00;100735.44;5071820;28;20142;-53
2021/11/24 04:22:42;;;;;;;0.73;0.73;;;;;;;10.99;100.00;100736.34;5071532;28;20047;-53
2021/11/24 04:25:44;;;;;;;2.75;1.45;;;;;;;11.00;100.00;100741.47;5071638;28;20561;-53
2021/11/24 04:28:47;;;;;;;3.10;1.08;;;;;;;11.00;100.00;100738.69;5070401;28;20554;-53
2021/11/24 04:31:50;;;;;;;7.80;1.50;;;;;;;11.02;100.00;100733.41;5072172;28;20148;-53
2021/11/24 04:34:53;;;;;;;1.77;0.75;;;;;;;10.99;100.00;100737.13;5067111;28;20047;-53
2021/11/24 04:37:56;;;;;;;1.55;0.90;;;;;;;11.00;100.00;100732.34;5063299;28;20507;-53
2021/11/24 04:41:00;;;;;;;2.50;0.70;;;;;;;11.01;100.00;100731.09;5071372;28;20450;-53
2021/11/24 04:44:04;;;;;;;1.08;0.98;;;;;;;11.02;100.00;100724.31;5075780;28;20094;-53
2021/11/24 04:47:07;;;;;;;5.32;1.17;;;;;;;11.02;100.00;100713.16;5075704;28;20052;-53
2021/11/24 04:50:10;;;;;;;1.88;0.93;;;;;;;10.89;100.00;100715.25;5076266;28;20081;-54
2021/11/24 04:53:14;;;;;;;1.20;0.73;;;;;;;10.92;100.00;100705.97;5060198;28;20043;-54
2021/11/24 04:56:17;;;;;;;4.13;1.00;;;;;;;10.93;100.00;100711.09;5075797;28;20093;-53
2021/11/24 04:59:20;;;;;;;4.57;1.67;;;;;;;10.94;100.00;100704.28;5075033;28;20040;-54
2021/11/24 05:02:23;;;;;;;2.20;1.20;;;;;;;10.90;100.00;100700.84;5075769;28;20051;-53
2021/11/24 05:05:29;;;;;;;4.70;0.95;;;;;;;10.91;100.00;100701.63;5060878;28;20127;-53
2021/11/24 05:08:34;;;;;;;2.40;0.93;;;;;;;10.89;100.00;100693.75;5075352;28;20055;-53
2021/11/24 05:11:40;;;;;;;11.70;2.17;;;;;;;10.93;100.00;100696.38;5062340;28;20522;-54
2021/11/24 05:14:45;;;;;;;1.60;0.98;;;;;;;10.95;100.00;100696.69;5075335;28;20082;-53
2021/11/24 05:17:54;;;;;;;2.28;0.85;;;;;;;10.96;100.00;100682.31;5073926;28;20491;-53
2021/11/24 05:21:03;;;;;;;5.38;1.48;;;;;;;10.96;100.00;100687.13;5074634;28;20452;-53
2021/11/24 05:24:05;;;;;;;3.70;0.88;;;;;;;10.93;100.00;100679.66;5074880;28;20082;-53
2021/11/24 05:27:09;;;;;;;2.35;1.55;;;;;;;10.91;100.00;100676.56;5074763;28;20050;-53
2021/11/24 05:30:13;;;;;;;2.28;1.55;;;;;;;10.90;100.00;100675.00;5073679;28;20110;-53
2021/11/24 05:33:16;;;;;;;2.60;2.17;;;;;;;10.82;100.00;100673.72;5074796;28;20553;-53
2021/11/24 05:36:19;;;;;;;5.10;1.55;;;;;;;10.75;100.00;100666.41;5074846;28;20039;-54
2021/11/24 05:39:22;;;;;;;1.70;1.23;;;;;;;10.79;100.00;100664.28;5074350;28;20195;-53
2021/11/24 05:42:27;;;;;;;7.10;2.08;;;;;;;10.73;100.00;100668.09;5074770;28;20556;-53
2021/11/24 05:48:37;;;;;;;3.05;1.45;;;;;;;10.82;100.00;100665.38;5074991;28;20439;-54
2021/11/24 05:51:41;;;;;;;2.30;0.70;;;;;;;10.76;100.00;100654.06;5074794;28;20111;-53
2021/11/24 05:54:44;;;;;;;3.42;1.20;;;;;;;10.79;100.00;100652.34;5073948;28;20113;-53
2021/11/24 05:57:47;;;;;;;1.55;0.80;;;;;;;10.75;100.00;100648.91;5074158;28;20043;-54
2021/11/24 06:00:49;;;;;;;12.60;2.08;;;;;;;10.66;100.00;100647.66;5074676;28;20190;-53
2021/11/24 06:03:52;;;;;;;2.25;1.17;;;;;;;10.68;100.00;100652.75;5059453;28;20051;-54
2021/11/24 06:06:56;;;;;;;3.30;1.88;;;;;;;10.62;100.00;100635.88;5074179;28;20115;-53
2021/11/24 06:09:59;;;;;;;4.57;1.30;;;;;;;10.59;100.00;100636.78;5074209;28;20055;-53
2021/11/24 06:13:02;;;;;;;1.08;0.88;;;;;;;10.54;100.00;100634.59;5074277;28;20047;-53
2021/11/24 06:16:05;;;;;;;1.40;0.65;;;;;;;10.54;100.00;100633.81;5069397;28;20039;-53
2021/11/24 06:19:08;;;;;;;2.70;1.30;;;;;;;10.50;100.00;100628.38;5074214;28;20048;-53
2021/11/24 06:22:11;;;;;;;2.65;0.85;;;;;;;10.54;100.00;100634.59;5071845;28;20040;-54
2021/11/24 06:25:14;;;;;;;3.08;1.10;;;;;;;10.53;100.00;100626.69;5062794;28;20516;-54
2021/11/24 06:28:17;;;;;;;2.50;0.88;;;;;;;10.52;100.00;100620.38;5061305;28;20523;-54
2021/11/24 06:31:22;;;;;;;1.85;1.25;;;;;;;10.50;100.00;100617.22;5055351;28;20106;-54
2021/11/24 06:34:25;;;;;;;1.73;0.82;;;;;;;10.40;100.00;100612.06;5061859;28;20573;-54
2021/11/24 06:37:28;;;;;;;4.68;1.38;;;;;;;10.33;100.00;100618.69;5072887;28;20093;-54
2021/11/24 06:40:31;;;;;;;1.55;0.85;;;;;;;10.27;100.00;100620.50;5073288;28;20566;-54
2021/11/24 06:43:35;;;;;;;2.25;1.40;;;;;;;10.17;100.00;100610.56;5073123;28;20162;-54
2021/11/24 06:46:38;;;;;;;3.55;0.75;;;;;;;10.09;100.00;100614.03;5073366;28;20109;-54
2021/11/24 06:49:43;;;;;;;1.95;0.73;;;;;;;10.08;100.00;100602.13;5072975;28;20124;-54
2021/11/24 06:52:46;;;;;;;0.30;0.30;;;;;;;10.10;100.00;100596.88;5072979;28;20043;-54
2021/11/24 06:55:49;;;;;;;2.10;0.70;;;;;;;10.01;100.00;100596.81;5055447;28;20087;-54
2021/11/24 06:58:51;;;;;;;0.43;0.43;;;;;;;10.04;100.00;100595.13;5064349;28;20039;-54
2021/11/24 07:01:54;;;;;;;4.45;0.70;;;;;;;10.09;100.00;100592.53;5072857;28;20047;-54
2021/11/24 07:04:57;;;;;;;1.30;0.75;;;;;;;10.10;100.00;100582.97;5073243;28;20127;-54
2021/11/24 07:08:00;;;;;;;1.67;1.15;;;;;;;10.08;100.00;100582.63;5056624;28;20465;-54
2021/11/24 07:11:03;;;;;;;1.75;1.05;;;;;;;10.11;100.00;100578.22;5072999;28;20539;-54
2021/11/24 07:14:10;;;;;;;2.75;0.65;;;;;;;10.10;100.00;100582.19;5057414;28;20043;-54
2021/11/24 07:17:13;;;;;;;4.25;1.00;;;;;;;10.06;100.00;100573.97;5072926;28;20055;-54
2021/11/24 07:20:16;;;;;;;1.75;0.50;;;;;;;9.99;100.00;100577.00;5073117;28;20044;-54
2021/11/24 07:23:19;;;;;;;2.08;0.95;;;;;;;9.92;100.00;100577.25;5060266;28;20071;-54
2021/11/24 07:26:22;;;;;;;0.47;0.28;;;;;;;9.90;100.00;100563.03;5069315;28;20090;-54
2021/11/24 07:29:25;;;;;;;3.28;1.13;;;;;;;9.92;100.00;100560.56;5066641;28;20044;-54
2021/11/24 07:32:27;;;;;;;3.20;1.58;;;;;;;10.05;100.00;100554.97;5072397;28;20086;-54
2021/11/24 07:35:32;;;;;;;1.05;0.90;;;;;;;10.00;100.00;100561.09;5054086;28;20063;-54
2021/11/24 07:38:35;;;;;;;1.42;1.00;;;;;;;10.03;100.00;100557.41;5059383;28;20043;-54
2021/11/24 07:41:39;;;;;;;1.13;0.45;;;;;;;10.01;100.00;100557.84;5064703;28;20572;-54
2021/11/24 07:44:41;;;;;;;1.00;0.75;;;;;;;10.00;100.00;100556.31;5059472;28;20446;-55
2021/11/24 07:47:46;;;;;;;0.47;0.47;;;;;;;10.01;100.00;100554.28;5068404;28;20135;-54
2021/11/24 07:50:49;;;;;;;0.70;0.50;;;;;;;10.01;100.00;100552.28;5054923;28;20052;-54
2021/11/24 07:53:52;;;;;;;3.47;1.13;;;;;;;9.90;100.00;100549.13;5068904;28;20106;-55
2021/11/24 07:56:55;;;;;;;1.85;0.95;;;;;;;9.87;100.00;100547.25;5068122;28;20044;-53
2021/11/24 07:59:58;;;;;;;4.13;0.52;;;;;;;9.85;100.00;100544.16;5069293;28;20125;-53
2021/11/24 08:03:00;;;;;;;2.55;0.85;;;;;;;9.80;100.00;100553.09;5072431;28;20056;-53
2021/11/24 08:06:04;;;;;;;1.85;1.02;;;;;;;9.81;100.00;100543.53;5071786;28;20042;-53
2021/11/24 08:09:06;;;;;;;3.50;1.70;;;;;;;9.84;100.00;100543.38;5072199;28;20085;-53
2021/11/24 08:12:10;;;;;;;4.38;1.42;;;;;;;9.85;100.00;100544.16;5071408;28;20063;-53
2021/11/24 08:15:13;;;;;;;2.70;1.33;;;;;;;9.83;100.00;100536.25;5072241;28;20074;-53
2021/11/24 08:18:15;;;;;;;9.82;2.72;;;;;;;9.81;100.00;100527.59;5075741;28;20051;-53
2021/11/24 08:21:19;;;;;;;2.42;1.20;;;;;;;9.82;100.00;100528.38;5076398;28;20067;-53
2021/11/24 08:24:22;;;;;;;5.93;1.40;;;;;;;9.80;100.00;100525.28;5075082;28;20094;-53
2021/11/24 08:27:26;;;;;;;15.30;1.90;;;;;;;9.81;100.00;100522.03;5076405;28;20051;-53
2021/11/24 08:30:29;;;;;;;18.42;3.45;;;;;;;9.82;100.00;100525.59;5075608;28;20039;-53
2021/11/24 08:33:32;;;;;;;2.83;1.02;;;;;;;9.84;100.00;100520.34;5075902;28;20131;-53
2021/11/24 08:36:35;;;;;;;1.75;1.23;;;;;;;9.87;100.00;100513.88;5058261;28;20503;-53
2021/11/24 08:39:40;;;;;;;1.33;1.23;;;;;;;9.83;100.00;100502.88;5059607;28;20114;-53
2021/11/24 08:42:43;;;;;;;4.00;1.40;;;;;;;9.84;100.00;100514.78;5060191;28;20039;-53
2021/11/24 08:45:46;;;;;;;3.03;1.67;;;;;;;9.93;100.00;100517.63;5075373;28;20048;-53
2021/11/24 08:48:49;;;;;;;2.22;1.13;;;;;;;10.09;100.00;100502.72;5075781;28;20039;-54
2021/11/24 08:51:52;;;;;;;2.47;0.52;;;;;;;10.05;100.00;100502.84;5075064;28;20044;-54
2021/11/24 08:54:55;;;;;;;1.45;1.10;;;;;;;10.00;100.00;100495.09;5074665;28;20042;-54
2021/11/24 08:57:58;;;;;;;0.40;0.40;;;;;;;10.02;100.00;100492.63;5074830;28;20066;-53
2021/11/24 09:01:01;;;;;;;3.47;1.17;;;;;;;10.07;100.00;100492.03;5057839;28;21341;-54
2021/11/24 09:04:04;;;;;;;3.20;0.93;;;;;;;10.09;100.00;100486.78;5069945;28;20075;-54
2021/11/24 09:07:07;;;;;;;0.73;0.73;;;;;;;10.15;100.00;100487.78;5062037;28;20059;-54
2021/11/24 09:10:10;;;;;;;4.78;1.52;;;;;;;10.18;100.00;100480.53;5060326;28;20048;-53
2021/11/24 09:13:14;;;;;;;3.50;1.13;;;;;;;10.22;100.00;100479.13;5062849;28;20062;-53
2021/11/24 09:16:17;;;;;;;3.50;0.38;;;;;;;10.26;100.00;100485.34;5074474;28;20480;-54
2021/11/24 09:19:20;;;;;;;0.40;0.40;;;;;;;10.34;100.00;100469.91;5063121;28;20052;-54
2021/11/24 09:22:23;;;;;;;1.10;0.88;;;;;;;10.47;100.00;100470.56;5069788;28;20043;-54
2021/11/24 09:25:35;;;;;;;0.73;0.70;;;;;;;10.52;100.00;100461.63;5059611;28;20043;-54
2021/11/24 09:28:38;;;;;;;1.13;1.02;;;;;;;10.55;100.00;100457.13;5055698;28;20071;-54
2021/11/24 09:31:41;;;;;;;1.05;0.82;;;;;;;10.57;100.00;100455.44;5074548;28;20606;-54
2021/11/24 09:34:44;;;;;;;1.33;0.90;;;;;;;10.56;100.00;100453.91;5074665;28;20067;-53
2021/11/24 09:37:48;;;;;;;1.85;0.98;;;;;;;10.55;100.00;100441.19;5052257;28;20457;-54
2021/11/24 09:40:54;;;;;;;0.70;0.60;;;;;;;10.63;100.00;100436.13;5066260;28;20469;-53
2021/11/24 09:43:59;;;;;;;2.15;0.80;;;;;;;10.63;100.00;100430.53;5067317;28;20047;-57
2021/11/24 09:47:02;;;;;;;1.25;0.52;;;;;;;10.62;100.00;100428.97;5074563;28;20047;-57
2021/11/24 09:50:07;;;;;;;3.22;0.50;;;;;;;10.59;100.00;100421.53;5074634;28;20043;-57
2021/11/24 09:53:11;;;;;;;0.93;0.65;;;;;;;10.59;100.00;100419.53;5074324;28;20484;-57
2021/11/24 09:56:14;;;;;;;1.48;0.60;;;;;;;10.70;100.00;100418.31;5058944;28;20068;-57
2021/11/24 09:59:17;;;;;;;0.85;0.80;;;;;;;10.72;100.00;100421.44;5059311;28;20047;-57
2021/11/24 10:02:21;;;;;;;1.20;0.55;;;;;;;10.69;100.00;100417.53;5060806;28;20102;-57
2021/11/24 10:05:26;;;;;;;4.60;0.43;;;;;;;10.68;100.00;100412.44;5055162;28;20076;-57
2021/11/24 10:08:32;;;;;;;0.43;0.43;;;;;;;10.63;100.00;100409.00;5068967;28;20056;-57
2021/11/24 10:11:35;;;;;;;3.13;1.15;;;;;;;10.60;100.00;100404.38;5073630;28;20079;-57
2021/11/24 10:14:39;;;;;;;2.95;0.60;;;;;;;10.56;100.00;100391.84;5074201;28;20070;-57
2021/11/24 10:17:42;;;;;;;1.95;0.85;;;;;;;10.59;100.00;100388.91;5061767;28;20050;-57
2021/11/24 10:20:56;;;;;;;0.55;0.55;;;;;;;10.68;100.00;100376.22;5073461;28;20086;-57
2021/11/24 10:24:06;;;;;;;4.40;0.55;;;;;;;10.68;100.00;100374.97;5070515;28;20636;-57
2021/11/24 10:27:13;;;;;;;4.70;1.02;;;;;;;10.71;100.00;100376.06;5072525;28;20400;-57
2021/11/24 10:30:28;;;;;;;6.35;1.55;;;;;;;10.71;100.00;100370.50;5072185;28;20397;-57
2021/11/24 10:33:31;;;;;;;6.85;2.50;;;;;;;10.85;100.00;100366.31;5072721;28;20557;-58
2021/11/24 10:36:33;;;;;;;2.15;1.20;;;;;;;11.02;100.00;100367.56;5072987;28;20039;-57
2021/11/24 10:39:37;;;;;;;9.82;1.63;;;;;;;11.18;100.00;100353.28;5058959;28;20039;-57
2021/11/24 10:42:43;;;;;;;0.77;0.57;;;;;;;11.21;100.00;100347.56;5073677;28;20039;-58
2021/11/24 10:45:54;;;;;;;6.95;0.70;;;;;;;11.18;100.00;100342.13;5073348;28;20036;-57
2021/11/24 10:49:10;;;;;;;1.88;1.60;;;;;;;11.20;100.00;100348.00;5073199;28;20042;-57
2021/11/24 10:52:23;;;;;;;2.58;1.42;;;;;;;11.31;100.00;100339.91;5063669;28;20039;-58
2021/11/24 10:55:30;;;;;;;1.20;0.45;;;;;;;11.41;100.00;100338.66;5056757;28;20054;-57
2021/11/24 10:58:38;;;;;;;7.00;0.98;;;;;;;11.37;100.00;100338.81;5073022;28;20090;-57
2021/11/24 11:01:42;;;;;;;3.55;0.60;;;;;;;11.49;100.00;100328.72;5073366;28;20062;-57
2021/11/24 11:04:58;;;;;;;2.38;1.30;;;;;;;11.61;100.00;100322.16;5072654;28;20170;-57
2021/11/24 11:08:06;;;;;;;3.22;0.75;;;;;;;11.66;100.00;100315.94;5073130;28;20081;-57
2021/11/24 11:11:09;;;;;;;5.28;0.65;;;;;;;11.63;100.00;100305.72;5072762;28;20059;-57
2021/11/24 11:14:16;;;;;;;3.40;1.33;;;;;;;11.64;100.00;100300.91;5072835;28;20036;-57
2021/11/24 11:17:19;;;;;;;2.28;1.33;;;;;;;11.64;100.00;100296.13;5065956;28;20063;-57
2021/11/24 11:20:25;;;;;;;1.52;1.15;;;;;;;11.60;100.00;100292.72;5072934;28;20050;-58
2021/11/24 11:23:31;;;;;;;1.33;1.13;;;;;;;11.46;100.00;100284.28;5072470;28;20051;-58
2021/11/24 11:26:34;;;;;;;1.20;1.10;;;;;;;11.27;100.00;100278.75;5072780;28;20101;-58
2021/11/24 11:29:40;;;;;;;2.95;0.95;;;;;;;11.22;100.00;100284.19;5072329;28;20075;-57
2021/11/24 11:32:45;;;;;;;1.17;0.63;;;;;;;11.24;100.00;100270.56;5072568;28;20109;-57
2021/11/24 11:35:49;;;;;;;1.00;0.82;;;;;;;11.30;100.00;100268.69;5072314;28;20036;-57
2021/11/24 11:38:55;;;;;;;0.98;0.57;;;;;;;11.18;100.00;100266.84;5072639;28;20492;-57
2021/11/24 11:42:01;;;;;;;0.63;0.63;;;;;;;11.14;100.00;100257.88;5072706;28;20048;-57
2021/11/24 11:45:10;;;;;;;0.70;0.60;;;;;;;11.06;100.00;100251.09;5072482;28;20423;-57
2021/11/24 11:48:14;;;;;;;1.50;0.60;;;;;;;11.12;100.00;100240.84;5072502;28;20035;-57
2021/11/24 11:51:32;;;;;;;3.75;0.75;;;;;;;11.07;100.00;100224.75;5071574;28;20136;-57
2021/11/24 11:54:36;;;;;;;0.98;0.82;;;;;;;11.04;100.00;100220.16;5062989;28;20117;-57
2021/11/24 11:57:44;;;;;;;0.63;0.63;;;;;;;11.04;100.00;100209.00;5071890;28;20048;-57
2021/11/24 12:01:16;;;;;;;1.58;1.13;;;;;;;10.87;100.00;100216.19;5068730;28;20039;-57
2021/11/24 12:04:23;;;;;;;1.55;0.70;;;;;;;10.94;100.00;100205.47;5071600;28;20562;-57
2021/11/24 12:07:25;;;;;;;2.08;1.08;;;;;;;11.06;100.00;100207.28;5072371;28;20105;-54
2021/11/24 12:10:58;;;;;;;0.70;0.50;;;;;;;11.07;100.00;100210.81;5072800;28;20109;-54
2021/11/24 12:14:57;;;;;;;1.83;0.85;;;;;;;11.08;100.00;100198.44;5072611;28;20545;-53
2021/11/24 12:18:09;;;;;;;12.63;2.70;;;;;;;11.30;100.00;100193.41;5056192;28;20083;-53
2021/11/24 12:21:21;;;;;;;16.65;4.63;;;;;;;11.47;100.00;100196.56;5073001;28;20098;-57
2021/11/24 12:24:39;;;;;;;6.78;1.75;;;;;;;11.68;100.00;100185.16;5058471;28;20093;-57
2021/11/24 12:27:54;;;;;;;7.60;1.60;;;;;;;11.83;100.00;100174.81;5072187;28;20071;-54
2021/11/24 12:31:03;;;;;;;1.73;1.38;;;;;;;11.77;100.00;100170.34;5071354;28;20051;-54
2021/11/24 12:34:09;;;;;;;1.00;1.00;;;;;;;11.90;100.00;100168.88;5071923;28;20082;-57
2021/11/24 12:37:22;;;;;;;2.13;0.73;;;;;;;11.92;100.00;100160.00;5072492;28;20047;-54
2021/11/24 12:40:26;;;;;;;1.15;1.10;;;;;;;12.01;100.00;100141.19;5057449;28;20138;-54
2021/11/24 12:43:33;;;;;;;2.67;1.27;;;;;;;12.03;100.00;100149.84;5067700;28;20124;-54
2021/11/24 12:46:39;;;;;;;1.60;1.00;;;;;;;11.96;100.00;100143.84;5071841;28;20096;-54
2021/11/24 12:49:44;;;;;;;1.77;0.88;;;;;;;11.98;100.00;100130.97;5056192;28;20516;-54
2021/11/24 12:53:00;;;;;;;2.05;0.85;;;;;;;11.97;100.00;100129.44;5053392;28;20079;-54
2021/11/24 12:56:09;;;;;;;1.02;0.65;;;;;;;12.02;100.00;100120.38;5070514;28;20051;-57
2021/11/24 12:59:21;;;;;;;0.20;0.20;;;;;;;12.02;100.00;100106.41;5071635;28;20062;-54
2021/11/24 13:02:27;;;;;;;0.30;0.30;;;;;;;12.11;100.00;100103.56;5072002;28;20079;-54
2021/11/24 13:05:30;;;;;;;2.92;1.10;;;;;;;12.04;100.00;100106.72;5074477;28;20094;-57
2021/11/24 13:08:35;;;;;;;1.40;1.00;;;;;;;12.10;100.00;100093.66;5075135;28;20094;-57
2021/11/24 13:12:05;;;;;;;1.35;0.68;;;;;;;12.24;100.00;100088.53;5075624;28;20039;-58
2021/11/24 13:15:09;;;;;;;5.88;0.85;;;;;;;12.18;100.00;100089.22;5067226;28;20388;-53
2021/11/24 13:18:20;;;;;;;2.15;0.65;;;;;;;12.15;100.00;100083.81;5074738;28;20083;-54
2021/11/24 13:21:23;;;;;;;1.73;0.40;;;;;;;12.06;100.00;100075.53;5076550;28;20059;-57
2021/11/24 13:24:28;;;;;;;0.60;0.60;;;;;;;12.08;100.00;100068.22;5075053;28;20048;-57
2021/11/24 13:27:38;;;;;;;0.25;0.25;;;;;;;12.18;100.00;100060.53;5075964;28;20043;-54
2021/11/24 13:30:53;;;;;;;2.35;1.00;;;;;;;12.13;100.00;100052.81;5060380;28;20044;-54
2021/11/24 13:33:56;;;;;;;1.27;0.47;;;;;;;12.07;100.00;100049.16;5073241;28;20052;-54
2021/11/24 13:37:00;;;;;;;0.30;0.28;;;;;;;12.06;100.00;100048.38;5064192;28;20098;-57
2021/11/24 13:40:04;;;;;;;2.75;0.45;;;;;;;11.97;100.00;100040.13;5074110;28;20125;-57
2021/11/24 13:43:08;;;;;;;0.30;0.25;;;;;;;11.99;100.00;100034.81;5064869;28;20127;-54
2021/11/24 13:46:12;;;;;;;0.95;0.82;;;;;;;11.92;100.00;100040.00;5074161;28;20048;-54
2021/11/24 13:49:22;;;;;;;1.85;1.17;;;;;;;11.91;100.00;100044.81;5074541;28;20448;-54
2021/11/24 13:52:30;;;;;;;0.85;0.85;;;;;;;11.89;100.00;100050.09;5074660;28;20042;-55
2021/11/24 13:55:33;;;;;;;1.30;1.15;;;;;;;11.99;100.00;100042.41;5074436;28;20091;-57
2021/11/24 13:58:39;;;;;;;3.22;0.82;;;;;;;12.05;100.00;100035.69;5075789;28;20089;-57
2021/11/24 14:01:46;;;;;;;1.17;0.60;;;;;;;12.12;100.00;100040.91;5074477;28;20038;-57
2021/11/24 14:04:52;;;;;;;1.83;0.68;;;;;;;12.07;100.00;100033.19;5059699;28;20039;-58
2021/11/24 14:07:55;;;;;;;1.08;0.88;;;;;;;12.03;100.00;100032.59;5074099;28;20074;-57
2021/11/24 14:10:58;;;;;;;1.00;0.88;;;;;;;12.07;100.00;100022.00;5073847;28;20106;-53
2021/11/24 14:14:09;;;;;;;4.38;0.95;;;;;;;12.12;100.00;100018.56;5074694;28;20170;-57